createdAt,value
2019-03-10T00:01:33.799Z,10.38
2019-03-10T00:04:04.174Z,10.38
2019-03-10T00:06:34.646Z,10.29
2019-03-10T00:09:06.288Z,10.23
2019-03-10T00:11:36.758Z,10.10
2019-03-10T00:14:07.100Z,9.99
2019-03-10T00:16:37.494Z,9.90
2019-03-10T00:19:07.886Z,9.87
2019-03-10T00:21:38.269Z,9.74
2019-03-10T00:24:08.718Z,9.67
2019-03-10T00:26:39.171Z,9.66
2019-03-10T00:29:09.528Z,9.76
2019-03-10T00:31:39.770Z,9.85
2019-03-10T00:34:10.151Z,9.86
2019-03-10T00:36:40.589Z,9.85
2019-03-10T00:39:45.008Z,9.70
2019-03-10T00:43:15.829Z,9.68
2019-03-10T00:46:25.429Z,9.61
2019-03-10T00:49:50.561Z,9.44
2019-03-10T00:52:39.278Z,9.47
2019-03-10T00:55:09.584Z,9.37
2019-03-10T00:57:40.008Z,9.35
2019-03-10T01:00:18.395Z,9.48
2019-03-10T01:02:48.784Z,9.48
2019-03-10T01:05:19.882Z,9.66
2019-03-10T01:07:50.458Z,9.57
2019-03-10T01:10:20.802Z,9.52
2019-03-10T01:12:51.580Z,9.50
2019-03-10T01:15:21.918Z,9.64
2019-03-10T01:17:54.796Z,9.70
2019-03-10T01:20:25.275Z,9.65
2019-03-10T01:22:55.579Z,9.62
2019-03-10T01:25:25.852Z,9.51
2019-03-10T01:27:56.260Z,9.46
2019-03-10T01:30:28.073Z,9.45
2019-03-10T01:33:46.815Z,9.48
2019-03-10T01:36:17.872Z,9.45
2019-03-10T01:38:48.050Z,9.50
2019-03-10T01:41:18.298Z,9.53
2019-03-10T01:43:48.594Z,9.60
2019-03-10T01:46:18.927Z,9.67
2019-03-10T01:48:49.224Z,9.67
2019-03-10T01:51:19.366Z,9.75
2019-03-10T01:53:49.702Z,9.78
2019-03-10T01:56:19.908Z,9.86
2019-03-10T01:58:50.143Z,9.94
2019-03-10T02:01:20.476Z,9.81
2019-03-10T02:03:50.710Z,9.75
2019-03-10T02:06:20.981Z,9.75
2019-03-10T02:08:51.302Z,9.76
2019-03-10T02:11:21.687Z,9.87
2019-03-10T02:13:51.867Z,9.76
2019-03-10T02:16:22.150Z,9.78
2019-03-10T02:18:52.321Z,9.80
2019-03-10T02:21:22.719Z,9.78
2019-03-10T02:23:53.093Z,9.76
2019-03-10T02:26:23.386Z,9.76
2019-03-10T02:28:53.636Z,9.86
2019-03-10T02:31:23.930Z,9.94
2019-03-10T02:33:54.179Z,9.88
2019-03-10T02:36:24.399Z,9.90
2019-03-10T02:38:54.765Z,10.00
2019-03-10T02:41:25.125Z,9.96
2019-03-10T02:43:55.405Z,9.96
2019-03-10T02:46:25.687Z,9.90
2019-03-10T02:48:55.845Z,9.91
2019-03-10T02:51:26.025Z,9.95
2019-03-10T02:53:56.253Z,9.90
2019-03-10T02:56:26.484Z,9.91
2019-03-10T02:58:56.718Z,9.93
2019-03-10T03:01:27.038Z,9.96
2019-03-10T03:03:57.380Z,10.06
2019-03-10T03:06:27.849Z,10.03
2019-03-10T03:08:58.026Z,9.99
2019-03-10T03:11:28.289Z,10.00
2019-03-10T03:13:58.534Z,10.00
2019-03-10T03:16:28.736Z,9.92
2019-03-10T03:18:59.060Z,9.93
2019-03-10T03:21:42.088Z,9.96
2019-03-10T03:24:01.250Z,9.94
2019-03-10T03:26:31.486Z,9.88
2019-03-10T03:29:01.861Z,9.90
2019-03-10T03:31:32.021Z,9.83
2019-03-10T03:34:02.282Z,9.71
2019-03-10T03:36:35.927Z,9.55
2019-03-10T03:39:26.497Z,9.48
2019-03-10T03:41:56.819Z,9.47
2019-03-10T03:44:27.095Z,9.35
2019-03-10T03:46:57.392Z,9.20
2019-03-10T03:49:27.712Z,9.10
2019-03-10T03:51:58.045Z,9.16
2019-03-10T03:54:28.400Z,9.05
2019-03-10T03:56:58.669Z,8.98
2019-03-10T03:59:28.989Z,9.02
2019-03-10T04:02:08.105Z,8.91
2019-03-10T04:04:38.434Z,8.83
2019-03-10T04:07:08.591Z,8.80
2019-03-10T04:09:38.930Z,8.82
2019-03-10T04:12:09.242Z,8.62
2019-03-10T04:14:39.576Z,8.60
2019-03-10T04:17:09.778Z,8.48
2019-03-10T04:19:40.103Z,8.35
2019-03-10T04:22:10.305Z,8.25
2019-03-10T04:24:40.563Z,8.16
2019-03-10T04:27:10.875Z,8.16
2019-03-10T04:29:41.135Z,8.13
2019-03-10T04:32:11.399Z,8.01
2019-03-10T04:34:41.643Z,7.99
2019-03-10T04:37:11.981Z,7.93
2019-03-10T04:39:42.340Z,7.82
2019-03-10T04:42:12.547Z,7.86
2019-03-10T04:44:42.791Z,7.85
2019-03-10T04:47:13.431Z,7.80
2019-03-10T04:49:43.740Z,7.83
2019-03-10T04:52:14.105Z,7.74
2019-03-10T04:55:04.695Z,7.76
2019-03-10T04:57:34.920Z,7.76
2019-03-10T05:00:05.779Z,7.77
2019-03-10T05:02:35.998Z,7.79
2019-03-10T05:05:06.760Z,7.73
2019-03-10T05:07:37.042Z,7.74
2019-03-10T05:10:07.547Z,7.69
2019-03-10T05:12:37.772Z,7.74
2019-03-10T05:15:08.508Z,7.74
2019-03-10T05:17:38.662Z,7.62
2019-03-10T05:20:09.641Z,7.70
2019-03-10T05:22:39.870Z,7.64
2019-03-10T05:25:10.712Z,7.57
2019-03-10T05:27:40.999Z,7.59
2019-03-10T05:30:11.343Z,7.57
2019-03-10T05:32:41.629Z,7.58
2019-03-10T05:35:12.044Z,7.56
2019-03-10T05:37:42.327Z,7.49
2019-03-10T05:40:12.696Z,7.44
2019-03-10T05:42:43.125Z,7.50
2019-03-10T05:45:13.366Z,7.53
2019-03-10T05:47:43.573Z,7.54
2019-03-10T05:50:13.961Z,7.59
2019-03-10T05:52:44.115Z,7.57
2019-03-10T05:55:14.441Z,7.54
2019-03-10T05:57:44.668Z,7.54
2019-03-10T06:00:15.131Z,7.55
2019-03-10T06:02:45.302Z,7.56
2019-03-10T06:05:15.596Z,7.68
2019-03-10T06:07:45.897Z,7.62
2019-03-10T06:10:16.375Z,7.74
2019-03-10T06:12:46.553Z,7.72
2019-03-10T06:15:16.738Z,7.79
2019-03-10T06:17:47.017Z,7.81
2019-03-10T06:20:17.297Z,7.88
2019-03-10T06:22:47.764Z,7.91
2019-03-10T06:25:18.337Z,8.02
2019-03-10T06:27:48.669Z,8.02
2019-03-10T06:30:19.119Z,8.10
2019-03-10T06:32:49.354Z,8.18
2019-03-10T06:35:19.776Z,8.21
2019-03-10T06:37:49.977Z,8.27
2019-03-10T06:40:20.346Z,8.31
2019-03-10T06:42:50.769Z,8.38
2019-03-10T06:45:21.320Z,8.43
2019-03-10T06:48:10.799Z,8.49
2019-03-10T06:50:41.239Z,8.49
2019-03-10T06:53:11.775Z,8.68
2019-03-10T06:55:42.313Z,8.70
2019-03-10T06:58:12.838Z,8.80
2019-03-10T07:00:43.267Z,8.92
2019-03-10T07:03:13.649Z,8.97
2019-03-10T07:05:44.216Z,9.00
2019-03-10T07:08:14.687Z,9.11
2019-03-10T07:10:45.188Z,9.28
2019-03-10T07:13:15.639Z,9.39
2019-03-10T07:15:45.969Z,9.49
2019-03-10T07:18:16.425Z,9.62
2019-03-10T07:20:46.913Z,9.81
2019-03-10T07:23:18.918Z,9.83
2019-03-10T07:26:05.349Z,9.93
2019-03-10T07:28:48.564Z,10.00
2019-03-10T07:31:25.243Z,10.20
2019-03-10T07:34:09.267Z,10.19
2019-03-10T07:36:58.541Z,10.18
2019-03-10T07:39:56.854Z,10.25
2019-03-10T07:42:41.698Z,10.33
2019-03-10T07:45:23.424Z,10.34
2019-03-10T07:48:27.976Z,10.33
2019-03-10T07:51:17.467Z,10.37
2019-03-10T07:53:56.893Z,10.44
2019-03-10T07:56:45.449Z,10.52
2019-03-10T07:59:29.301Z,10.51
2019-03-10T08:02:30.630Z,10.62
2019-03-10T08:05:26.311Z,10.77
2019-03-10T08:08:34.022Z,10.86
2019-03-10T08:11:29.101Z,10.94
2019-03-10T08:14:16.279Z,11.16
2019-03-10T08:17:09.030Z,11.21
2019-03-10T08:19:56.338Z,11.26
2019-03-10T08:22:45.787Z,11.33
2019-03-10T08:25:27.909Z,11.43
2019-03-10T08:28:05.997Z,11.49
2019-03-10T08:30:54.296Z,11.40
2019-03-10T08:33:56.068Z,11.49
2019-03-10T08:36:38.399Z,11.42
2019-03-10T08:39:31.426Z,11.39
2019-03-10T08:42:20.261Z,11.41
2019-03-10T08:45:12.596Z,11.47
2019-03-10T08:48:14.033Z,11.67
2019-03-10T08:51:01.705Z,11.73
2019-03-10T08:53:47.145Z,11.84
2019-03-10T08:56:30.841Z,11.76
2019-03-10T08:59:23.277Z,11.75
2019-03-10T09:02:12.498Z,11.71
2019-03-10T09:05:04.904Z,11.65
2019-03-10T09:07:50.287Z,11.73
2019-03-10T09:10:32.465Z,11.88
2019-03-10T09:13:10.868Z,11.89
2019-03-10T09:16:00.297Z,11.79
2019-03-10T09:18:54.646Z,11.87
2019-03-10T09:21:50.779Z,11.92
2019-03-10T09:24:38.634Z,11.94
2019-03-10T09:27:28.486Z,12.10
2019-03-10T09:30:12.098Z,12.15
2019-03-10T09:33:13.963Z,12.15
2019-03-10T09:36:00.386Z,12.06
2019-03-10T09:38:48.904Z,12.11
2019-03-10T09:41:37.089Z,12.19
2019-03-10T09:44:36.385Z,12.22
2019-03-10T09:47:33.083Z,12.31
2019-03-10T09:50:22.690Z,12.18
2019-03-10T09:53:18.066Z,12.24
2019-03-10T09:56:10.399Z,12.33
2019-03-10T09:58:46.935Z,12.36
2019-03-10T10:01:30.565Z,12.61
2019-03-10T10:04:10.569Z,12.44
2019-03-10T10:06:46.711Z,12.50
2019-03-10T10:09:42.105Z,12.44
2019-03-10T10:12:34.136Z,12.50
2019-03-10T10:15:26.605Z,12.73
2019-03-10T10:18:13.139Z,12.95
2019-03-10T10:21:05.888Z,12.92
2019-03-10T10:23:59.083Z,13.14
2019-03-10T10:26:40.860Z,13.18
2019-03-10T10:29:28.357Z,13.47
2019-03-10T10:32:14.176Z,13.98
2019-03-10T10:34:53.179Z,13.90
2019-03-10T10:37:42.624Z,13.77
2019-03-10T10:40:22.866Z,13.57
2019-03-10T10:43:19.344Z,13.45
2019-03-10T10:46:09.682Z,13.54
2019-03-10T10:48:53.870Z,13.60
2019-03-10T10:51:33.932Z,13.72
2019-03-10T10:54:22.094Z,13.83
2019-03-10T10:57:03.421Z,14.05
2019-03-10T10:59:40.881Z,14.07
2019-03-10T11:02:28.384Z,14.28
2019-03-10T11:05:17.692Z,14.25
2019-03-10T11:08:07.093Z,14.51
2019-03-10T11:10:46.628Z,14.29
2019-03-10T11:13:24.549Z,14.23
2019-03-10T11:16:14.057Z,14.15
2019-03-10T11:19:01.260Z,14.40
2019-03-10T11:22:05.783Z,14.80
2019-03-10T11:24:46.002Z,14.60
2019-03-10T11:27:34.295Z,14.89
2019-03-10T11:30:23.266Z,14.66
2019-03-10T11:33:16.441Z,14.89
2019-03-10T11:36:06.820Z,14.75
2019-03-10T11:38:47.123Z,14.99
2019-03-10T11:41:33.845Z,15.10
2019-03-10T11:44:15.957Z,15.18
2019-03-10T11:47:03.585Z,15.26
2019-03-10T11:49:42.405Z,15.10
2019-03-10T11:52:21.233Z,15.08
2019-03-10T11:55:01.131Z,15.38
2019-03-10T11:57:52.894Z,15.25
2019-03-10T12:00:37.848Z,15.37
2019-03-10T12:03:14.875Z,14.91
2019-03-10T12:06:02.834Z,14.81
2019-03-10T12:09:04.564Z,15.07
2019-03-10T12:11:35.128Z,14.92
2019-03-10T12:14:05.622Z,14.73
2019-03-10T12:16:35.915Z,14.59
2019-03-10T12:19:06.413Z,14.60
2019-03-10T12:21:36.898Z,14.60
2019-03-10T12:24:07.470Z,14.75
2019-03-10T12:26:37.953Z,14.81
2019-03-10T12:29:09.597Z,14.70
2019-03-10T12:31:40.097Z,14.86
2019-03-10T12:34:10.666Z,14.74
2019-03-10T12:36:41.022Z,14.87
2019-03-10T12:39:35.019Z,14.90
2019-03-10T12:42:05.664Z,14.92
2019-03-10T12:44:36.147Z,14.97
2019-03-10T12:47:09.059Z,14.77
2019-03-10T12:49:40.255Z,14.81
2019-03-10T12:52:11.414Z,14.32
2019-03-10T12:54:42.755Z,14.73
2019-03-10T12:57:14.277Z,14.92
2019-03-10T12:59:45.243Z,14.78
2019-03-10T13:02:16.618Z,15.09
2019-03-10T13:04:47.788Z,15.19
2019-03-10T13:07:18.778Z,15.11
2019-03-10T13:09:49.727Z,15.01
2019-03-10T13:12:20.951Z,15.04
2019-03-10T13:14:59.289Z,15.13
2019-03-10T13:17:28.006Z,15.07
2019-03-10T13:19:59.921Z,15.14
2019-03-10T13:22:30.340Z,15.01
2019-03-10T13:25:00.746Z,15.01
2019-03-10T13:27:31.214Z,15.09
2019-03-10T13:30:02.245Z,15.10
2019-03-10T13:32:33.900Z,15.00
2019-03-10T13:35:04.378Z,15.10
2019-03-10T13:37:34.958Z,15.08
2019-03-10T13:40:05.742Z,15.25
2019-03-10T13:42:36.142Z,15.24
2019-03-10T13:45:06.923Z,15.13
2019-03-10T13:47:37.505Z,15.34
2019-03-10T13:50:09.887Z,14.87
2019-03-10T13:52:40.376Z,14.78
2019-03-10T13:55:11.437Z,14.89
2019-03-10T13:57:41.882Z,15.08
2019-03-10T14:00:14.644Z,14.95
2019-03-10T14:02:45.109Z,14.67
2019-03-10T14:05:15.972Z,14.33
2019-03-10T14:07:46.399Z,14.55
2019-03-10T14:10:17.152Z,14.55
2019-03-10T14:12:47.600Z,14.49
2019-03-10T14:15:18.177Z,14.36
2019-03-10T14:17:48.624Z,14.26
2019-03-10T14:20:19.071Z,14.58
2019-03-10T14:22:49.619Z,14.74
2019-03-10T14:25:20.201Z,14.69
2019-03-10T14:27:50.830Z,14.79
2019-03-10T14:30:21.323Z,14.68
2019-03-10T14:32:51.804Z,14.74
2019-03-10T14:35:25.338Z,14.55
2019-03-10T14:37:55.743Z,14.45
2019-03-10T14:40:26.397Z,14.56
2019-03-10T14:42:56.979Z,14.50
2019-03-10T14:45:29.547Z,14.54
2019-03-10T14:48:00.133Z,14.54
2019-03-10T14:50:30.636Z,14.53
2019-03-10T14:53:00.999Z,14.56
2019-03-10T14:55:32.772Z,14.48
2019-03-10T14:58:03.609Z,14.29
2019-03-10T15:00:34.235Z,14.45
2019-03-10T15:03:05.773Z,14.50
2019-03-10T15:05:36.208Z,14.42
2019-03-10T15:08:07.654Z,14.39
2019-03-10T15:10:38.447Z,14.32
2019-03-10T15:13:11.177Z,14.36
2019-03-10T15:15:41.159Z,14.20
2019-03-10T15:18:12.724Z,14.14
2019-03-10T15:20:43.243Z,14.04
2019-03-10T15:23:13.721Z,13.90
2019-03-10T15:25:44.218Z,13.79
2019-03-10T15:28:14.672Z,13.59
2019-03-10T15:30:45.731Z,13.38
2019-03-10T15:33:16.240Z,13.19
2019-03-10T15:35:46.716Z,13.11
2019-03-10T15:38:17.320Z,13.06
2019-03-10T15:40:47.558Z,12.95
2019-03-10T15:43:17.978Z,12.94
2019-03-10T15:45:49.054Z,12.84
2019-03-10T15:48:19.497Z,12.92
2019-03-10T15:50:49.910Z,12.99
2019-03-10T15:53:20.403Z,13.06
2019-03-10T15:55:50.935Z,12.96
2019-03-10T15:58:21.510Z,12.89
2019-03-10T16:00:52.148Z,12.81
2019-03-10T16:03:22.735Z,12.71
2019-03-10T16:05:53.273Z,12.73
2019-03-10T16:08:23.829Z,12.75
2019-03-10T16:10:54.253Z,12.74
2019-03-10T16:13:24.810Z,12.86
2019-03-10T16:15:55.311Z,12.89
2019-03-10T16:18:26.005Z,12.76
2019-03-10T16:20:56.588Z,12.66
2019-03-10T16:23:27.194Z,12.53
2019-03-10T16:25:57.874Z,12.42
2019-03-10T16:28:28.360Z,12.34
2019-03-10T16:30:58.880Z,12.24
2019-03-10T16:33:29.530Z,12.17
2019-03-10T16:36:00.137Z,12.11
2019-03-10T16:38:30.755Z,12.07
2019-03-10T16:41:01.415Z,12.03
2019-03-10T16:43:31.965Z,11.92
2019-03-10T16:46:03.363Z,11.84
2019-03-10T16:48:34.088Z,11.76
2019-03-10T16:51:04.707Z,11.67
2019-03-10T16:53:35.203Z,11.61
2019-03-10T16:56:06.005Z,11.54
2019-03-10T16:58:36.784Z,11.51
2019-03-10T17:01:07.376Z,11.50
2019-03-10T17:03:38.132Z,11.38
2019-03-10T17:06:08.711Z,11.36
2019-03-10T17:08:39.271Z,11.26
2019-03-10T17:11:09.958Z,11.18
2019-03-10T17:13:40.352Z,11.09
2019-03-10T17:16:12.311Z,11.01
2019-03-10T17:18:42.775Z,10.94
2019-03-10T17:21:13.255Z,10.87
2019-03-10T17:23:43.686Z,10.77
2019-03-10T17:26:18.915Z,10.71
2019-03-10T17:28:50.476Z,10.63
2019-03-10T17:31:24.341Z,10.54
2019-03-10T17:33:54.770Z,10.49
2019-03-10T17:36:26.244Z,10.42
2019-03-10T17:38:56.638Z,10.33
2019-03-10T17:41:27.217Z,10.33
2019-03-10T17:43:57.696Z,10.30
2019-03-10T17:46:28.193Z,10.39
2019-03-10T17:48:58.930Z,10.31
2019-03-10T17:51:29.630Z,10.22
2019-03-10T17:54:00.380Z,10.24
2019-03-10T17:56:31.203Z,10.24
2019-03-10T17:59:05.613Z,10.23
2019-03-10T18:01:36.284Z,10.30
2019-03-10T18:04:06.803Z,10.38
2019-03-10T18:06:37.392Z,10.36
2019-03-10T18:09:21.769Z,10.37
2019-03-10T18:11:52.180Z,10.39
2019-03-10T18:14:22.692Z,10.41
2019-03-10T18:16:53.231Z,10.42
2019-03-10T18:19:23.712Z,10.21
2019-03-10T18:21:54.169Z,9.75
2019-03-10T18:24:24.640Z,9.51
2019-03-10T18:26:55.257Z,9.37
2019-03-10T18:29:25.640Z,9.33
2019-03-10T18:31:55.853Z,9.46
2019-03-10T18:34:26.307Z,9.44
2019-03-10T18:36:56.570Z,9.43
2019-03-10T18:39:27.173Z,9.47
2019-03-10T18:42:02.516Z,-143.48
2019-03-10T18:48:15.089Z,-143.48
2019-03-10T19:22:07.115Z,-143.48
2019-03-10T19:25:21.064Z,-143.48
2019-03-10T20:46:05.310Z,-143.48
2019-03-10T20:49:35.298Z,-143.48
2019-03-10T21:03:34.353Z,6.67
2019-03-10T21:44:25.866Z,6.63
2019-03-10T21:46:49.836Z,6.63
2019-03-10T21:49:19.788Z,6.58
2019-03-10T21:51:50.375Z,6.64
2019-03-10T21:54:21.066Z,6.51
2019-03-10T21:56:51.573Z,6.60
2019-03-10T21:59:21.984Z,6.46
2019-03-10T22:01:52.583Z,6.38
2019-03-10T22:04:23.038Z,6.40
2019-03-10T22:06:53.490Z,6.37
2019-03-10T22:09:23.968Z,6.25
2019-03-10T22:11:54.408Z,6.32
2019-03-10T22:14:24.934Z,6.32
2019-03-10T22:17:02.968Z,6.14
2019-03-10T22:19:33.525Z,6.08
2019-03-10T22:22:04.719Z,6.17
2019-03-10T22:24:35.166Z,6.23
2019-03-10T22:27:05.585Z,6.22
2019-03-10T22:29:35.970Z,6.20
2019-03-10T22:32:06.402Z,6.17
2019-03-10T22:34:36.762Z,6.11
2019-03-10T22:37:07.189Z,6.10
2019-03-10T22:39:37.629Z,6.32
2019-03-10T22:42:08.032Z,6.29
2019-03-10T22:44:38.495Z,6.27
2019-03-10T22:47:08.910Z,6.19
2019-03-10T22:49:39.256Z,6.16
2019-03-10T22:52:09.610Z,6.08
2019-03-10T22:54:39.945Z,6.15
2019-03-10T22:57:11.209Z,6.17
2019-03-10T22:59:41.580Z,6.20
2019-03-10T23:02:12.019Z,6.17
2019-03-10T23:04:42.382Z,6.20
2019-03-10T23:07:12.799Z,6.20
2019-03-10T23:09:43.189Z,6.22
2019-03-10T23:12:13.530Z,6.21
2019-03-10T23:14:43.829Z,6.24
2019-03-10T23:17:14.208Z,6.19
2019-03-10T23:19:44.644Z,6.18
2019-03-10T23:22:15.038Z,6.11
2019-03-10T23:24:45.481Z,6.14
2019-03-10T23:27:15.947Z,6.16
2019-03-10T23:29:46.410Z,6.19
2019-03-10T23:32:16.783Z,6.13
2019-03-10T23:34:47.251Z,6.13
2019-03-10T23:37:17.580Z,6.07
2019-03-10T23:39:47.952Z,6.08
2019-03-10T23:42:18.265Z,5.98
2019-03-10T23:44:48.673Z,5.93
2019-03-10T23:47:19.046Z,5.85
2019-03-10T23:49:49.389Z,5.79
2019-03-10T23:52:19.682Z,5.69
2019-03-10T23:54:50.102Z,5.61
2019-03-10T23:57:20.392Z,5.59
2019-03-10T23:59:51.031Z,5.54
